Aérodrome :
LOGIN :

S'inscrire | Disclaimer

   EN    FR    IT 

 










Légende :    VFR   VFR Marginal   IFR   IFR Intensif   IFR Très Intensif
Visi : 
Plafond : 
>= 8 km
>= 3000ft
5 à 8 km
1000 à 3000 ft
1500m à 5 km
500 à 1000 ft
800 à 1500m
200 à 500 ft
< 800m
< 200 ft
Symboles :   Orages  Brouillard  Fortes neiges  Fortes précipitations  Vent > 20 kt
SIGMETs :   Divers  Orages  Givrage  Turbulence  Onde Orograph.  Cendres Volcan.






- Altitude de l'aérodrome : 106 ft
- Code IATA : NRN


EDLV - Weeze

DERNIER METAR :
  • 191320Z 08006KT 020V130 9999 FEW040 19/12 Q1015

METARs EXPIRÉS :
  • 191250Z 08005KT 020V130 9999 SCT029 20/13 Q1015
  • 191220Z 08005KT 360V150 9999 SCT031 20/13 Q1015
  • 191150Z 11005KT 040V170 9999 SCT025 19/13 Q1015
  • 191120Z 10005KT 040V160 9999 FEW025 19/13 Q1015
  • 191050Z 12006KT CAVOK 19/13 Q1015

TAF TAF EDLV
Valide du 19 à 12h jusqu'au 20 à 12h UTC


191100Z 1912/2012 08006KT 9999 SCT035



MET'MAP, la Météo Aéronautique d'un coup d'oeil ! - Copyright ORBIFLY Décembre 2007 - Disclaimer

ORBIFLY MET'MAP TEAM :

Programmation & Développement : Alexandra Zaïnal
Sur une idée originale de : Baudouin d'Aumeries
Assistance à la programmation : Marc-Olivier Méhu
Soutien technique & logistique : Manuel Goepfert

Contact : metmap@orbifly.com




SOURCES & CREDITS :

   NOAA